Aviation Digital Data Service (ADDS)

Output produced by METARs form (1242 UTC 17 September 2019)
found at http://www.aviationweather.gov/metar/data/
 
VTSP 171230Z VRB02KT 8000 FEW020 BKN100 25/23 Q1011 NOSIG
VTSP 171200Z VRB02KT 9000 SCT018 BKN100 25/23 Q1011 NOSIG
VTSP 171130Z 30004KT 250V340 9999 SCT018 BKN100 25/23 Q1010 NOSIG
VTSP 171100Z 29006KT 9999 SCT018 BKN100 25/23 Q1010 NOSIG
VTSP 171030Z 31003KT 240V010 9000 -RA SCT018 BKN100 24/22 Q1010 RERA NOSIG
VTSP 171000Z 26010KT 230V300 3000 RA SCT018 BKN100 24/22 Q1010 RERA BECMG TL1020 7000 -RA
VTSP 170930Z 26012KT 4000 RA SCT018 BKN100 25/22 Q1010 BECMG TL0950 7000 -RA
VTSP 170900Z 30010KT 260V350 9000 3000SW -RA SCT018 BKN100 28/23 Q1010 TEMPO TL0920 26015G30KT 3000 RA
VTSP 170830Z 29013KT 250V340 9999 SCT020 BKN100 29/24 Q1010 TEMPO FM0845 TL0920 26015G30KT 3000 RA
VTSP 170800Z 28011KT 9999 SCT020 BKN100 30/24 Q1010 NOSIG
VTSP 170730Z 28012KT 9999 SCT020 BKN100 30/24 Q1010 NOSIG
VTSP 170700Z 27014KT 9000 -RA SCT020 SCT100 30/23 Q1010 NOSIG
VTSP 170630Z 27013KT 9999 FEW020 SCT100 31/23 Q1010 NOSIG
VTSP 170600Z 27010KT 240V300 9999 FEW020 SCT100 31/24 Q1011 NOSIG
VTSP 170530Z 29009KT 260V320 9999 SCT020 SCT100 30/24 Q1011 NOSIG
VTSP 170500Z 27009KT 240V320 9999 SCT020 SCT100 30/24 Q1012 NOSIG
VTSP 170430Z 28009KT 240V330 9999 SCT020 SCT100 30/24 Q1012 NOSIG
VTSP 170400Z 29008KT 250V330 9999 FEW020 SCT100 30/23 Q1012 NOSIG
VTSP 170330Z 27009KT 240V300 9999 FEW020 SCT100 30/23 Q1013 NOSIG
VTSP 170300Z 28009KT 240V310 9999 FEW020 BKN100 30/23 Q1013 NOSIG
VTSP 170230Z 28008KT 250V320 9999 FEW020 SCT100 29/23 Q1013 NOSIG
VTSP 170200Z 28008KT 9999 FEW020 SCT100 29/24 Q1013 NOSIG
VTSP 170130Z 28009KT 9999 FEW020 BKN100 29/24 Q1012 NOSIG
VTSP 170100Z 28008KT 250V320 9999 FEW020 BKN100 28/23 Q1012 NOSIG
VTSP 170030Z 28009KT 250V320 9999 FEW020 BKN100 28/23 Q1011 NOSIG
VTSP 170000Z 28009KT 9999 FEW020 BKN100 28/23 Q1011 NOSIG
VTSP 162330Z 29006KT 260V320 9999 FEW020 BKN100 27/23 Q1010 NOSIG
VTSP 162300Z 29007KT 9000 FEW020 BKN100 27/23 Q1010 NOSIG
VTSP 162230Z 28008KT 8000 FEW020 SCT100 27/23 Q1010 NOSIG
VTSP 162200Z 28007KT 8000 FEW020 SCT100 27/23 Q1010 NOSIG
VTSP 162130Z 26010KT 8000 FEW020 SCT100 27/23 Q1010 NOSIG
VTSP 162100Z 26006KT 210V300 8000 FEW020 SCT100 26/23 Q1009 NOSIG
VTSP 162030Z 29003KT 250V320 8000 FEW020 SCT100 25/23 Q1009 NOSIG
VTSP 162000Z 22005KT 160V290 8000 -DZ FEW020 SCT100 26/22 Q1009 NOSIG
VTSP 161930Z 27016KT 8000 -DZ SCT020 SCT100 27/23 Q1010 NOSIG
VTSP 161900Z 27014KT 8000 SCT020 SCT100 28/23 Q1010 NOSIG
VTSP 161830Z 27013KT 8000 FEW020 SCT100 28/23 Q1010 NOSIG
VTSP 161800Z 27012KT 8000 FEW020 SCT100 28/23 Q1010 NOSIG
VTSP 161730Z 28011KT 8000 FEW020 SCT100 27/23 Q1011 NOSIG
VTSP 161700Z 28010KT 8000 FEW020 BKN100 27/22 Q1011 NOSIG
VTSP 161630Z 26011KT 8000 FEW020 SCT100 28/23 Q1011 NOSIG
VTSP 161600Z 28010KT 8000 FEW020 SCT100 27/23 Q1011 NOSIG
VTSP 161530Z 29005KT 260V330 8000 FEW020 BKN100 27/23 Q1011 NOSIG
VTSP 161500Z 29004KT 210V360 8000 FEW020 BKN100 26/23 Q1011 NOSIG
VTSP 161430Z 28007KT 8000 FEW020 BKN100 27/23 Q1011 NOSIG
VTSP 161400Z 30005KT 270V340 8000 FEW020 BKN100 27/23 Q1011 NOSIG
VTSP 161330Z 28007KT 250V320 8000 SCT020 BKN100 27/23 Q1010 NOSIG
VTSP 161300Z 28012KT 260V320 8000 -DZ SCT020 BKN100 27/23 Q1010 NOSIG
TAF VTSP 171100Z 1712/1818 28010KT 9999 FEW020 SCT100 
     TEMPO 1718/1724 29015G35KT 5000 RA FEW018 SCT020 BKN100 
     TEMPO 1806/1812 29015G35KT 3000 RA FEW018 SCT020 BKN100